Time;durP1;ratioP1;P1;durP2;ratioP2;P2;SDS_P1;SDS_P2;PMS_P1;PMS_P2;Temp;Humidity;BMP_temperature;BMP_pressure;BME280_temperature;BME280_humidity;BME280_pressure;Samples;Min_cycle;Max_cycle;Signal;HPM_P1;HPM_P2
2024/01/23 00:01:12;;;;;;;7.03;1.70;;;15.20;67.20;;;;;;5148335;27;47636;-51
2024/01/23 00:03:40;;;;;;;8.68;1.92;;;15.10;67.90;;;;;;5149420;27;45186;-51
2024/01/23 00:06:07;;;;;;;7.63;1.73;;;15.20;67.50;;;;;;5149093;27;45329;-51
2024/01/23 00:08:34;;;;;;;11.48;2.22;;;15.20;67.60;;;;;;5150908;27;44961;-51
2024/01/23 00:11:00;;;;;;;7.97;2.05;;;15.20;67.60;;;;;;5148439;27;45393;-51
2024/01/23 00:13:27;;;;;;;7.90;1.90;;;15.20;67.70;;;;;;5151101;27;45158;-51
2024/01/23 00:15:54;;;;;;;8.68;1.67;;;15.20;67.70;;;;;;5149535;27;45227;-51
2024/01/23 00:18:20;;;;;;;10.27;2.10;;;15.20;67.90;;;;;;5149494;27;45310;-51
2024/01/23 00:20:49;;;;;;;7.93;1.52;;;15.20;67.90;;;;;;5151120;27;45246;-51
2024/01/23 00:23:15;;;;;;;5.28;1.17;;;15.20;67.90;;;;;;5148486;27;45241;-51
2024/01/23 00:25:42;;;;;;;5.40;1.95;;;15.20;68.20;;;;;;5148108;27;45151;-51
2024/01/23 00:28:09;;;;;;;7.38;1.95;;;15.20;68.20;;;;;;5148200;27;45134;-51
2024/01/23 00:30:37;;;;;;;5.53;1.30;;;15.30;68.50;;;;;;5150622;27;45244;-51
2024/01/23 00:33:04;;;;;;;6.22;1.40;;;15.20;68.60;;;;;;5148313;27;45140;-51
2024/01/23 00:35:31;;;;;;;9.48;2.03;;;15.30;68.60;;;;;;5150023;27;45321;-51
2024/01/23 00:37:59;;;;;;;7.57;1.73;;;15.30;68.80;;;;;;5149413;27;45137;-51
2024/01/23 00:40:26;;;;;;;9.43;2.05;;;15.30;68.70;;;;;;5149103;27;46992;-50
2024/01/23 00:42:52;;;;;;;6.47;1.88;;;15.30;68.70;;;;;;5150722;27;45277;-51
2024/01/23 00:45:19;;;;;;;6.80;1.83;;;15.30;68.90;;;;;;5149272;27;45421;-51
2024/01/23 00:47:46;;;;;;;8.10;1.75;;;15.30;68.70;;;;;;5150926;27;44847;-51
2024/01/23 00:50:13;;;;;;;8.45;2.10;;;15.30;68.60;;;;;;5154915;27;46353;-50
2024/01/23 00:52:39;;;;;;;8.38;1.98;;;15.30;68.70;;;;;;5152446;27;45807;-51
2024/01/23 00:55:08;;;;;;;5.95;2.13;;;15.20;68.50;;;;;;5155579;27;45243;-50
2024/01/23 00:57:35;;;;;;;7.18;1.73;;;15.20;68.70;;;;;;5158270;27;44780;-51
2024/01/23 01:00:05;;;;;;;7.65;1.92;;;15.20;68.60;;;;;;5153402;27;46587;-51
2024/01/23 01:02:32;;;;;;;5.38;1.67;;;15.30;68.90;;;;;;5152031;27;45583;-51
2024/01/23 01:04:58;;;;;;;7.68;1.92;;;15.20;68.40;;;;;;5158609;27;45293;-51
2024/01/23 01:07:25;;;;;;;6.57;1.70;;;15.20;68.40;;;;;;5151502;27;45246;-51
2024/01/23 01:09:52;;;;;;;8.25;2.22;;;15.20;68.60;;;;;;5152249;27;46400;-50
2024/01/23 01:12:20;;;;;;;6.07;1.52;;;15.20;68.20;;;;;;5152743;27;45771;-51
2024/01/23 01:14:47;;;;;;;10.07;2.13;;;15.20;68.70;;;;;;5153122;27;45149;-51
2024/01/23 01:17:14;;;;;;;7.13;2.20;;;15.20;68.10;;;;;;5154528;27;45357;-50
2024/01/23 01:19:41;;;;;;;7.35;1.90;;;15.20;68.20;;;;;;5152473;27;45487;-50
2024/01/23 01:22:08;;;;;;;5.93;1.80;;;15.30;68.00;;;;;;5153072;27;44588;-50
2024/01/23 01:24:35;;;;;;;5.90;1.90;;;15.30;68.00;;;;;;5151559;27;45122;-50
2024/01/23 01:27:02;;;;;;;10.57;2.10;;;15.30;67.90;;;;;;5152271;27;45312;-51
2024/01/23 01:29:30;;;;;;;6.05;1.70;;;15.30;67.70;;;;;;5152578;27;46982;-50
2024/01/23 01:31:57;;;;;;;5.82;1.48;;;15.30;68.00;;;;;;5151145;27;45548;-50
2024/01/23 01:34:24;;;;;;;7.97;1.90;;;15.30;67.80;;;;;;5153207;27;45104;-50
2024/01/23 01:36:51;;;;;;;5.80;1.77;;;15.30;67.40;;;;;;5153045;27;45485;-50
2024/01/23 01:39:18;;;;;;;9.05;2.10;;;15.30;67.20;;;;;;5152566;27;45255;-50
2024/01/23 01:41:44;;;;;;;7.32;1.85;;;15.30;67.10;;;;;;5152673;27;45144;-51
2024/01/23 01:44:11;;;;;;;7.88;1.60;;;15.20;66.60;;;;;;5155050;27;45222;-51
2024/01/23 01:46:39;;;;;;;7.18;1.55;;;15.20;66.40;;;;;;5152120;27;45121;-50
2024/01/23 01:49:06;;;;;;;7.88;1.80;;;15.20;66.00;;;;;;5154137;27;46519;-51
2024/01/23 01:51:33;;;;;;;9.48;1.55;;;15.20;66.00;;;;;;5156228;27;45212;-50
2024/01/23 01:54:00;;;;;;;8.10;1.75;;;15.10;65.70;;;;;;5154173;27;44734;-51
2024/01/23 01:56:28;;;;;;;6.32;1.42;;;15.10;65.60;;;;;;5152149;27;45433;-51
2024/01/23 01:58:58;;;;;;;10.82;2.22;;;15.10;65.40;;;;;;5151639;27;47340;-51
2024/01/23 02:01:26;;;;;;;8.60;1.77;;;15.10;65.00;;;;;;5150552;27;45311;-51
2024/01/23 02:03:54;;;;;;;5.13;1.38;;;15.10;64.80;;;;;;5154723;27;45130;-51
2024/01/23 02:06:21;;;;;;;8.25;1.85;;;15.10;64.40;;;;;;5151680;27;45266;-51
2024/01/23 02:08:49;;;;;;;7.10;1.55;;;15.10;64.60;;;;;;5153156;27;44974;-51
2024/01/23 02:11:16;;;;;;;4.50;1.67;;;15.10;64.20;;;;;;5153472;27;45307;-51
2024/01/23 02:13:43;;;;;;;5.47;1.48;;;15.10;64.20;;;;;;5152075;27;45187;-51
2024/01/23 02:16:11;;;;;;;6.93;2.00;;;15.10;63.60;;;;;;5154417;27;45344;-51
2024/01/23 02:18:38;;;;;;;6.35;1.92;;;15.10;63.50;;;;;;5153616;27;45184;-51
2024/01/23 02:21:07;;;;;;;5.05;1.50;;;15.20;63.50;;;;;;5152446;27;45221;-51
2024/01/23 02:23:35;;;;;;;9.13;1.70;;;15.20;63.30;;;;;;5150676;27;45133;-51
2024/01/23 02:26:02;;;;;;;6.13;1.65;;;15.20;63.00;;;;;;5154493;27;45606;-51
2024/01/23 02:28:29;;;;;;;8.50;1.60;;;15.20;63.10;;;;;;5152510;27;46255;-51
2024/01/23 02:30:55;;;;;;;5.40;1.63;;;15.20;62.90;;;;;;5150985;27;45168;-51
2024/01/23 02:33:22;;;;;;;7.68;1.83;;;15.20;62.60;;;;;;5151532;27;45195;-51
2024/01/23 02:35:49;;;;;;;5.13;1.50;;;15.20;62.50;;;;;;5151199;27;45258;-51
2024/01/23 02:38:15;;;;;;;8.40;1.85;;;15.10;62.20;;;;;;5148675;27;46106;-51
2024/01/23 02:40:44;;;;;;;6.35;1.40;;;15.10;62.30;;;;;;5153221;27;45302;-51
2024/01/23 02:43:10;;;;;;;5.72;1.58;;;15.10;62.40;;;;;;5153459;27;44685;-51
2024/01/23 02:45:37;;;;;;;5.90;1.65;;;15.10;62.40;;;;;;5153972;27;45157;-51
2024/01/23 02:48:05;;;;;;;7.88;2.05;;;15.10;62.30;;;;;;5149123;27;45064;-51
2024/01/23 02:50:31;;;;;;;6.45;1.63;;;15.00;62.20;;;;;;5150056;27;45171;-51
2024/01/23 02:52:58;;;;;;;8.00;1.75;;;15.00;62.40;;;;;;5150756;27;45263;-51
2024/01/23 02:55:25;;;;;;;6.93;1.73;;;15.10;62.60;;;;;;5151183;27;45302;-51
2024/01/23 02:57:53;;;;;;;6.07;1.45;;;15.10;62.40;;;;;;5149559;27;46527;-51
2024/01/23 03:00:20;;;;;;;3.03;1.20;;;15.10;62.30;;;;;;5153571;27;45217;-51
2024/01/23 03:02:47;;;;;;;6.65;1.65;;;15.10;62.20;;;;;;5150523;27;45514;-51
2024/01/23 03:05:13;;;;;;;2.53;0.85;;;15.10;62.30;;;;;;5152522;27;45392;-50
2024/01/23 03:07:40;;;;;;;10.65;1.98;;;15.10;62.10;;;;;;5148154;27;45461;-51
2024/01/23 03:10:08;;;;;;;6.68;1.63;;;15.10;61.70;;;;;;5152917;27;45253;-51
2024/01/23 03:12:35;;;;;;;4.68;1.70;;;15.20;61.70;;;;;;5151846;27;45152;-51
2024/01/23 03:15:03;;;;;;;6.93;1.73;;;15.20;61.40;;;;;;5151945;27;45086;-51
2024/01/23 03:17:30;;;;;;;9.80;1.65;;;15.20;62.20;;;;;;5150715;27;45366;-51
2024/01/23 03:19:58;;;;;;;5.72;1.65;;;15.20;61.30;;;;;;5154217;27;44690;-51
2024/01/23 03:22:25;;;;;;;6.82;1.88;;;15.20;61.50;;;;;;5150700;27;44716;-51
2024/01/23 03:24:52;;;;;;;6.32;1.42;;;15.20;61.20;;;;;;5153845;27;45402;-51
2024/01/23 03:27:18;;;;;;;5.72;1.80;;;15.10;61.00;;;;;;5149891;27;46026;-51
2024/01/23 03:29:46;;;;;;;8.27;1.58;;;15.10;61.30;;;;;;5151077;27;45184;-50
2024/01/23 03:32:14;;;;;;;5.15;1.42;;;15.10;61.10;;;;;;5150084;27;45210;-50
2024/01/23 03:34:41;;;;;;;6.50;1.58;;;15.10;61.20;;;;;;5153003;27;45109;-51
2024/01/23 03:37:08;;;;;;;7.60;1.48;;;15.10;61.20;;;;;;5149908;27;48221;-50
2024/01/23 03:39:35;;;;;;;6.72;1.48;;;15.00;61.20;;;;;;5154216;27;45233;-51
2024/01/23 03:42:03;;;;;;;5.13;1.63;;;15.00;61.00;;;;;;5152402;27;45277;-51
2024/01/23 03:44:30;;;;;;;5.38;1.65;;;15.00;61.10;;;;;;5150123;27;45450;-50
2024/01/23 03:46:58;;;;;;;5.50;1.50;;;15.00;61.20;;;;;;5152671;27;47002;-50
2024/01/23 03:49:27;;;;;;;8.60;2.55;;;15.00;61.20;;;;;;5150473;27;45206;-50
2024/01/23 03:51:54;;;;;;;4.47;1.38;;;15.00;61.00;;;;;;5147980;27;45211;-50
2024/01/23 03:54:20;;;;;;;6.45;1.70;;;15.10;60.80;;;;;;5152761;27;45129;-50
2024/01/23 03:56:47;;;;;;;5.78;1.40;;;15.10;60.80;;;;;;5148372;27;45231;-50
2024/01/23 03:59:14;;;;;;;6.32;1.30;;;15.10;60.50;;;;;;5150970;27;45205;-51
2024/01/23 04:01:41;;;;;;;5.63;1.35;;;15.20;60.90;;;;;;5152299;27;45187;-50
2024/01/23 04:04:07;;;;;;;5.15;1.17;;;15.20;60.50;;;;;;5150690;27;45163;-50
2024/01/23 04:06:36;;;;;;;4.82;1.13;;;15.20;60.50;;;;;;5153018;27;45198;-50
2024/01/23 04:09:03;;;;;;;7.60;1.80;;;15.20;60.40;;;;;;5148471;27;45105;-51
2024/01/23 04:11:30;;;;;;;6.82;1.65;;;15.20;60.10;;;;;;5151093;27;45355;-51
2024/01/23 04:13:57;;;;;;;5.90;1.55;;;15.20;60.00;;;;;;5156254;27;45497;-51
2024/01/23 04:16:24;;;;;;;5.90;1.65;;;15.10;60.00;;;;;;5148777;27;46611;-51
2024/01/23 04:18:54;;;;;;;6.18;1.60;;;15.10;60.10;;;;;;5153373;27;45235;-51
2024/01/23 04:21:21;;;;;;;5.28;1.30;;;15.10;60.00;;;;;;5150522;27;44747;-51
2024/01/23 04:23:49;;;;;;;11.77;2.00;;;15.10;60.20;;;;;;5152261;27;45349;-51
2024/01/23 04:26:18;;;;;;;3.92;1.17;;;15.00;60.30;;;;;;5148466;27;45237;-51
2024/01/23 04:28:46;;;;;;;7.80;1.50;;;15.00;60.30;;;;;;5148204;27;45201;-51
2024/01/23 04:31:13;;;;;;;6.07;1.30;;;15.00;61.30;;;;;;5153712;27;44743;-51
2024/01/23 04:33:40;;;;;;;6.43;1.77;;;15.00;60.40;;;;;;5150298;27;46016;-51
2024/01/23 04:36:07;;;;;;;6.63;2.20;;;15.00;60.30;;;;;;5149507;27;46240;-51
2024/01/23 04:38:33;;;;;;;5.03;1.30;;;15.00;60.30;;;;;;5148853;27;45234;-51
2024/01/23 04:41:02;;;;;;;6.38;1.48;;;15.00;60.30;;;;;;5150892;27;45110;-51
2024/01/23 04:43:28;;;;;;;5.72;1.50;;;15.00;60.00;;;;;;5148247;27;45236;-51
2024/01/23 04:45:55;;;;;;;6.68;1.80;;;15.00;60.10;;;;;;5152192;27;45194;-51
2024/01/23 04:48:22;;;;;;;6.88;1.65;;;15.10;60.00;;;;;;5149239;27;45213;-51
2024/01/23 04:50:49;;;;;;;4.75;1.60;;;15.10;59.70;;;;;;5149532;27;45195;-51
2024/01/23 04:53:15;;;;;;;6.65;1.88;;;15.10;59.40;;;;;;5148281;27;45584;-51
2024/01/23 04:55:42;;;;;;;6.25;1.85;;;15.10;59.50;;;;;;5151355;27;46538;-51
2024/01/23 04:58:10;;;;;;;5.85;1.75;;;15.20;59.30;;;;;;5147615;27;45312;-51
2024/01/23 05:00:37;;;;;;;6.50;1.52;;;15.10;59.00;;;;;;5148478;27;45406;-51
2024/01/23 05:03:04;;;;;;;5.80;1.77;;;15.10;59.10;;;;;;5152526;27;44684;-51
2024/01/23 05:05:32;;;;;;;7.28;1.70;;;15.10;59.00;;;;;;5147938;27;46396;-51
2024/01/23 05:07:58;;;;;;;7.18;1.55;;;15.10;59.00;;;;;;5148719;27;45181;-51
2024/01/23 05:10:25;;;;;;;8.07;1.92;;;15.00;58.90;;;;;;5148299;27;45299;-51
2024/01/23 05:12:52;;;;;;;5.97;1.40;;;15.00;59.10;;;;;;5148776;27;45170;-51
2024/01/23 05:15:20;;;;;;;7.35;1.88;;;15.00;59.20;;;;;;5150275;27;45246;-50
2024/01/23 05:17:47;;;;;;;8.63;2.15;;;15.00;59.20;;;;;;5147322;27;45164;-50
2024/01/23 05:20:13;;;;;;;5.90;1.58;;;15.00;59.40;;;;;;5148136;27;45230;-51
2024/01/23 05:22:40;;;;;;;5.35;1.70;;;14.90;59.30;;;;;;5152881;27;45279;-51
2024/01/23 05:25:08;;;;;;;5.32;1.83;;;14.90;59.30;;;;;;5150160;27;45137;-51
2024/01/23 05:27:34;;;;;;;7.03;1.80;;;14.90;59.20;;;;;;5150847;27;45206;-51
2024/01/23 05:30:04;;;;;;;6.03;1.52;;;14.90;59.20;;;;;;5150154;27;45202;-51
2024/01/23 05:32:32;;;;;;;8.18;1.90;;;15.00;59.20;;;;;;5149802;27;44782;-51
2024/01/23 05:35:03;;;;;;;5.55;1.70;;;15.00;58.90;;;;;;5152174;27;45422;-50
2024/01/23 05:37:30;;;;;;;4.25;1.15;;;15.00;59.10;;;;;;5147539;27;45256;-50
2024/01/23 05:39:57;;;;;;;8.18;1.70;;;15.00;58.70;;;;;;5152943;27;44695;-51
2024/01/23 05:42:23;;;;;;;9.18;1.95;;;15.00;58.70;;;;;;5152269;27;45201;-51
2024/01/23 05:44:50;;;;;;;7.68;2.10;;;15.00;59.40;;;;;;5153454;27;46557;-51
2024/01/23 05:47:17;;;;;;;4.15;1.77;;;15.00;59.10;;;;;;5154312;27;44768;-51
2024/01/23 05:49:45;;;;;;;5.75;1.42;;;15.00;58.60;;;;;;5156714;27;45166;-51
2024/01/23 05:52:12;;;;;;;6.72;1.60;;;15.00;58.70;;;;;;5151372;27;45244;-51
2024/01/23 05:54:41;;;;;;;5.40;1.75;;;15.00;58.90;;;;;;5152209;27;46183;-51
2024/01/23 05:57:08;;;;;;;6.47;1.67;;;15.00;59.10;;;;;;5156801;27;45227;-51
2024/01/23 05:59:34;;;;;;;4.35;1.60;;;14.90;59.10;;;;;;5152878;27;45329;-51
2024/01/23 06:02:02;;;;;;;6.32;1.65;;;14.90;59.30;;;;;;5155551;27;45265;-51
2024/01/23 06:04:29;;;;;;;3.92;1.40;;;14.90;59.30;;;;;;5154571;27;47468;-51
2024/01/23 06:06:57;;;;;;;6.97;1.75;;;14.90;59.00;;;;;;5153104;27;45473;-51
2024/01/23 06:09:24;;;;;;;8.52;2.20;;;14.90;58.80;;;;;;5152531;27;45162;-51
2024/01/23 06:11:52;;;;;;;5.78;1.60;;;14.90;58.50;;;;;;5154638;27;45320;-51
2024/01/23 06:14:19;;;;;;;5.63;1.42;;;14.90;58.70;;;;;;5151914;27;45217;-51
2024/01/23 06:16:46;;;;;;;7.05;1.88;;;14.90;58.80;;;;;;5152708;27;45170;-51
2024/01/23 06:19:13;;;;;;;5.35;1.70;;;14.90;58.70;;;;;;5152998;27;45415;-51
2024/01/23 06:21:40;;;;;;;4.65;1.20;;;14.90;58.70;;;;;;5152727;27;45173;-51
2024/01/23 06:24:09;;;;;;;8.07;2.13;;;14.90;58.50;;;;;;5156939;27;45260;-51
2024/01/23 06:26:36;;;;;;;9.25;1.73;;;14.90;58.20;;;;;;5156398;27;45263;-51
2024/01/23 06:29:04;;;;;;;6.55;1.80;;;14.90;58.10;;;;;;5154464;27;45195;-50
2024/01/23 06:31:31;;;;;;;5.72;1.95;;;14.90;58.00;;;;;;5154218;27;45130;-51
2024/01/23 06:33:58;;;;;;;4.70;1.73;;;14.90;57.70;;;;;;5157181;27;45478;-51
2024/01/23 06:36:25;;;;;;;6.90;1.83;;;14.90;57.50;;;;;;5149727;27;45143;-51
2024/01/23 06:38:52;;;;;;;6.13;1.75;;;14.90;57.30;;;;;;5152129;27;45306;-51
2024/01/23 06:41:20;;;;;;;6.35;1.45;;;14.90;57.20;;;;;;5151723;27;45292;-51
2024/01/23 06:43:47;;;;;;;7.80;2.00;;;15.00;57.30;;;;;;5156497;27;47379;-51
2024/01/23 06:46:14;;;;;;;6.43;1.40;;;15.10;57.30;;;;;;5153062;27;45188;-51
2024/01/23 06:48:40;;;;;;;6.47;1.77;;;15.10;57.20;;;;;;5151630;27;45228;-51
2024/01/23 06:51:07;;;;;;;5.00;1.58;;;15.20;57.20;;;;;;5153260;27;45208;-51
2024/01/23 06:53:34;;;;;;;6.50;1.95;;;15.20;56.90;;;;;;5150949;27;45432;-51
2024/01/23 06:56:01;;;;;;;6.72;1.73;;;15.20;57.10;;;;;;5153373;27;45317;-51
2024/01/23 06:58:29;;;;;;;4.25;1.25;;;15.20;57.10;;;;;;5150890;27;44638;-51
2024/01/23 07:00:56;;;;;;;7.88;1.77;;;15.20;57.20;;;;;;5154860;27;45413;-51
2024/01/23 07:03:23;;;;;;;5.05;1.70;;;15.20;57.30;;;;;;5149908;27;45315;-51
2024/01/23 07:05:49;;;;;;;5.45;1.60;;;15.20;57.40;;;;;;5149892;27;45218;-51
2024/01/23 07:08:16;;;;;;;8.82;1.73;;;15.20;57.70;;;;;;5152518;27;45309;-51
2024/01/23 07:10:43;;;;;;;4.47;1.67;;;15.20;58.40;;;;;;5148592;27;45246;-51
2024/01/23 07:13:10;;;;;;;4.55;1.30;;;15.10;58.10;;;;;;5150423;27;45281;-51
2024/01/23 07:15:38;;;;;;;5.10;1.67;;;15.10;58.20;;;;;;5152014;27;45228;-51
2024/01/23 07:18:05;;;;;;;8.05;1.92;;;15.10;58.20;;;;;;5151747;27;45215;-51
2024/01/23 07:20:32;;;;;;;6.25;1.70;;;15.20;58.30;;;;;;5154431;27;45163;-51
2024/01/23 07:22:58;;;;;;;4.80;1.65;;;15.20;58.50;;;;;;5151835;27;45208;-51
2024/01/23 07:25:25;;;;;;;6.43;1.55;;;15.10;58.40;;;;;;5150899;27;45158;-51
2024/01/23 07:27:52;;;;;;;9.93;1.90;;;15.10;58.40;;;;;;5150407;27;45190;-51
2024/01/23 07:30:19;;;;;;;6.97;1.83;;;15.20;58.60;;;;;;5149678;27;45201;-51
2024/01/23 07:32:47;;;;;;;5.32;1.67;;;15.10;58.50;;;;;;5150690;27;46269;-51
2024/01/23 07:35:14;;;;;;;6.47;1.65;;;15.20;58.70;;;;;;5152350;27;45227;-51
2024/01/23 07:37:41;;;;;;;5.07;1.35;;;15.10;58.60;;;;;;5152363;27;45132;-51
2024/01/23 07:40:08;;;;;;;3.95;1.75;;;15.10;58.90;;;;;;5153746;27;45134;-51
2024/01/23 07:42:35;;;;;;;4.55;1.38;;;15.10;58.90;;;;;;5149969;27;46110;-51
2024/01/23 07:45:02;;;;;;;6.85;1.50;;;15.10;59.10;;;;;;5154547;27;45203;-51
2024/01/23 07:47:28;;;;;;;5.10;1.63;;;15.10;59.20;;;;;;5151330;27;45187;-51
2024/01/23 07:49:56;;;;;;;5.47;1.60;;;15.10;59.30;;;;;;5153149;27;45186;-51
2024/01/23 07:52:25;;;;;;;5.65;1.63;;;15.10;59.30;;;;;;5153168;27;46371;-51
2024/01/23 07:54:53;;;;;;;6.45;1.48;;;15.10;59.30;;;;;;5151164;27;45405;-51
2024/01/23 07:57:19;;;;;;;6.40;1.70;;;15.10;60.50;;;;;;5150053;27;45109;-51
2024/01/23 07:59:46;;;;;;;5.82;1.70;;;15.10;59.50;;;;;;5151337;27;45271;-51
2024/01/23 08:02:13;;;;;;;8.40;2.50;;;15.00;59.40;;;;;;5150450;27;45268;-51
2024/01/23 08:04:39;;;;;;;6.68;1.92;;;15.10;59.70;;;;;;5152106;27;45112;-51
2024/01/23 08:07:08;;;;;;;5.30;1.35;;;15.10;59.60;;;;;;5150191;27;45256;-51
2024/01/23 08:09:34;;;;;;;7.30;1.60;;;15.10;59.90;;;;;;5148355;27;45573;-51
2024/01/23 08:12:02;;;;;;;6.03;1.60;;;15.10;59.60;;;;;;5153016;27;46050;-51
2024/01/23 08:14:29;;;;;;;4.03;1.33;;;15.10;59.90;;;;;;5151293;27;45343;-51
2024/01/23 08:16:55;;;;;;;7.90;1.52;;;15.10;60.00;;;;;;5150507;27;45173;-51
2024/01/23 08:19:22;;;;;;;9.10;1.70;;;15.20;59.90;;;;;;5148444;27;44812;-51
2024/01/23 08:21:49;;;;;;;4.95;1.30;;;15.20;59.70;;;;;;5150398;27;47346;-51
2024/01/23 08:24:17;;;;;;;3.92;1.65;;;15.10;59.60;;;;;;5150392;27;45198;-51
2024/01/23 08:26:44;;;;;;;9.20;1.60;;;15.20;59.70;;;;;;5149937;27;45208;-51
2024/01/23 08:29:10;;;;;;;3.35;1.17;;;15.20;59.70;;;;;;5152853;27;45538;-51
2024/01/23 08:31:37;;;;;;;3.33;1.27;;;15.10;60.40;;;;;;5148260;27;45250;-51
2024/01/23 08:34:04;;;;;;;5.80;1.48;;;15.10;60.00;;;;;;5152450;27;45203;-51
2024/01/23 08:36:31;;;;;;;7.22;1.70;;;15.10;60.20;;;;;;5149097;27;45224;-51
2024/01/23 08:38:57;;;;;;;6.20;1.95;;;15.10;60.00;;;;;;5153125;27;44846;-51
2024/01/23 08:41:27;;;;;;;6.80;1.73;;;15.10;60.30;;;;;;5149766;27;46363;-51
2024/01/23 08:43:53;;;;;;;6.55;1.80;;;15.10;60.40;;;;;;5152937;27;46345;-51
2024/01/23 08:46:21;;;;;;;3.97;1.40;;;15.10;60.30;;;;;;5151228;27;44697;-51
2024/01/23 08:48:48;;;;;;;3.47;1.40;;;15.10;60.00;;;;;;5154129;27;45605;-51
2024/01/23 08:51:14;;;;;;;7.88;1.73;;;15.10;60.30;;;;;;5147382;27;45427;-51
2024/01/23 08:53:41;;;;;;;4.63;1.23;;;15.10;60.40;;;;;;5150582;27;45329;-51
2024/01/23 08:56:09;;;;;;;3.83;1.27;;;15.10;60.20;;;;;;5154213;27;45098;-51
2024/01/23 08:58:37;;;;;;;7.22;1.50;;;15.10;60.30;;;;;;5150563;27;45137;-51
2024/01/23 09:01:05;;;;;;;4.63;1.63;;;15.20;60.30;;;;;;5153266;27;45250;-51
2024/01/23 09:03:33;;;;;;;5.47;1.40;;;15.20;60.30;;;;;;5148762;27;45194;-51
2024/01/23 09:06:00;;;;;;;5.60;1.75;;;15.20;60.40;;;;;;5152621;27;45385;-51
2024/01/23 09:08:26;;;;;;;7.57;1.83;;;15.20;60.30;;;;;;5147282;27;45473;-51
2024/01/23 09:10:53;;;;;;;7.43;1.52;;;15.20;60.20;;;;;;5149357;27;45200;-51
2024/01/23 09:13:20;;;;;;;7.15;1.50;;;15.20;60.10;;;;;;5152713;27;45278;-51
2024/01/23 09:15:48;;;;;;;5.35;1.50;;;15.20;60.10;;;;;;5158784;27;44673;-51
2024/01/23 09:18:15;;;;;;;7.20;1.65;;;15.20;60.10;;;;;;5155339;27;45155;-51
2024/01/23 09:20:42;;;;;;;5.57;1.50;;;15.20;60.10;;;;;;5150710;27;47342;-51
2024/01/23 09:23:10;;;;;;;5.95;1.42;;;15.20;60.30;;;;;;5153871;27;45294;-51
2024/01/23 09:25:37;;;;;;;10.65;2.10;;;15.20;60.40;;;;;;5153448;27;45597;-51
2024/01/23 09:28:04;;;;;;;7.95;1.95;;;15.10;60.40;;;;;;5156383;27;44720;-51
2024/01/23 09:30:31;;;;;;;4.68;1.25;;;15.10;60.60;;;;;;5152819;27;45467;-51
2024/01/23 09:33:00;;;;;;;7.55;1.50;;;15.10;60.50;;;;;;5151523;27;45276;-51
2024/01/23 09:35:27;;;;;;;5.53;1.75;;;15.10;60.50;;;;;;5152790;27;45286;-51
2024/01/23 09:37:53;;;;;;;4.93;1.67;;;15.10;60.70;;;;;;5153439;27;45405;-51
2024/01/23 09:40:21;;;;;;;6.45;1.73;;;15.10;60.70;;;;;;5153131;27;45258;-51
2024/01/23 09:42:48;;;;;;;8.25;1.80;;;15.20;60.60;;;;;;5153198;27;45077;-51
2024/01/23 09:45:17;;;;;;;7.03;1.52;;;15.10;61.00;;;;;;5152352;27;45253;-51
2024/01/23 09:47:45;;;;;;;6.45;1.95;;;15.20;60.70;;;;;;5153209;27;45173;-51
2024/01/23 09:50:13;;;;;;;7.85;1.77;;;15.20;60.90;;;;;;5156788;27;45328;-51
2024/01/23 09:52:42;;;;;;;4.55;1.35;;;15.20;60.80;;;;;;5152127;27;44706;-51
2024/01/23 09:55:10;;;;;;;7.07;1.80;;;15.20;60.80;;;;;;5150709;27;45279;-51
2024/01/23 09:57:39;;;;;;;6.43;1.83;;;15.20;60.60;;;;;;5152834;27;45476;-51
2024/01/23 10:00:11;;;;;;;7.28;2.20;;;15.20;60.60;;;;;;5153366;27;45161;-51
2024/01/23 10:02:39;;;;;;;6.88;1.73;;;15.20;60.50;;;;;;5152918;27;45440;-51
2024/01/23 10:05:08;;;;;;;6.78;1.95;;;15.20;60.80;;;;;;5152566;27;45516;-51
2024/01/23 10:07:36;;;;;;;9.25;2.28;;;15.20;60.60;;;;;;5151975;27;46195;-51
2024/01/23 10:10:05;;;;;;;8.18;1.88;;;15.20;60.50;;;;;;5154301;27;46018;-51
2024/01/23 10:12:32;;;;;;;8.93;1.98;;;15.20;60.60;;;;;;5151933;27;45185;-51
2024/01/23 10:15:00;;;;;;;7.65;2.17;;;15.20;61.00;;;;;;5154807;27;45187;-51
2024/01/23 10:17:27;;;;;;;8.57;1.75;;;15.20;61.00;;;;;;5152784;27;45072;-51
2024/01/23 10:19:54;;;;;;;8.90;2.30;;;15.20;61.10;;;;;;5153748;27;45970;-51
2024/01/23 10:22:21;;;;;;;4.75;1.45;;;15.20;61.00;;;;;;5153446;27;45177;-51
2024/01/23 10:24:51;;;;;;;4.50;1.25;;;15.20;61.00;;;;;;5150941;27;44641;-51
2024/01/23 10:27:18;;;;;;;6.10;1.85;;;15.10;61.00;;;;;;5151710;27;45167;-51
2024/01/23 10:29:45;;;;;;;8.90;1.80;;;15.10;61.10;;;;;;5151827;27;45426;-51
2024/01/23 10:32:12;;;;;;;7.82;2.20;;;15.20;61.00;;;;;;5154454;27;45223;-51
2024/01/23 10:34:38;;;;;;;8.07;2.17;;;15.20;60.90;;;;;;5153235;27;45163;-51
2024/01/23 10:37:06;;;;;;;6.30;1.70;;;15.20;61.00;;;;;;5150640;27;45372;-51
2024/01/23 10:39:33;;;;;;;8.93;1.60;;;15.10;60.80;;;;;;5151189;27;45140;-51
2024/01/23 10:42:02;;;;;;;8.48;1.48;;;15.20;61.00;;;;;;5150429;27;45248;-51
2024/01/23 10:44:31;;;;;;;9.10;2.00;;;15.20;60.80;;;;;;5152820;27;45322;-51
2024/01/23 10:46:58;;;;;;;4.85;1.83;;;15.30;60.70;;;;;;5156436;27;44902;-51
2024/01/23 10:49:24;;;;;;;5.97;1.80;;;15.30;60.70;;;;;;5155436;27;45240;-51
2024/01/23 10:51:55;;;;;;;5.88;1.67;;;15.30;60.60;;;;;;5153669;27;45140;-51
2024/01/23 10:54:27;;;;;;;5.68;1.75;;;15.30;60.50;;;;;;5155524;27;45348;-51
2024/01/23 10:56:57;;;;;;;7.47;2.22;;;15.30;60.70;;;;;;5152785;27;45177;-51
2024/01/23 10:59:28;;;;;;;7.70;1.75;;;15.30;60.50;;;;;;5153985;27;46546;-51
2024/01/23 11:02:02;;;;;;;7.82;2.05;;;15.30;60.50;;;;;;5154711;27;45181;-51
2024/01/23 11:04:29;;;;;;;6.45;1.85;;;15.20;60.60;;;;;;5153297;27;45226;-51
2024/01/23 11:07:01;;;;;;;3.75;1.60;;;15.20;61.00;;;;;;5152533;27;45673;-51
2024/01/23 11:09:35;;;;;;;8.18;2.20;;;15.20;60.90;;;;;;5149374;27;46624;-51
2024/01/23 11:12:10;;;;;;;8.60;1.88;;;15.20;60.70;;;;;;5155079;27;45223;-51
2024/01/23 11:14:45;;;;;;;8.60;2.08;;;15.20;60.80;;;;;;5152203;27;44657;-51
2024/01/23 11:17:13;;;;;;;9.20;2.00;;;15.20;60.90;;;;;;5152598;27;45232;-51
2024/01/23 11:19:41;;;;;;;6.80;1.83;;;15.20;60.80;;;;;;5151043;27;46520;-51
2024/01/23 11:22:08;;;;;;;5.65;1.80;;;15.20;60.80;;;;;;5151964;27;45307;-51
2024/01/23 11:24:40;;;;;;;6.32;1.60;;;15.20;60.70;;;;;;5151374;27;45335;-51
2024/01/23 11:27:07;;;;;;;7.18;2.08;;;15.20;60.40;;;;;;5154769;27;45220;-51
2024/01/23 11:29:34;;;;;;;10.65;2.50;;;15.20;61.50;;;;;;5150987;27;46032;-51
2024/01/23 11:32:16;;;;;;;5.43;1.70;;;15.30;60.70;;;;;;5154405;27;45246;-51
2024/01/23 11:34:43;;;;;;;8.43;1.90;;;15.30;60.80;;;;;;5154233;27;45158;-51
2024/01/23 11:37:43;;;;;;;8.52;2.20;;;15.30;60.80;;;;;;5152777;27;45315;-51
2024/01/23 11:40:30;;;;;;;4.68;1.70;;;15.30;60.70;;;;;;5146709;27;46909;-51
2024/01/23 11:42:59;;;;;;;7.45;1.52;;;15.30;60.80;;;;;;5149276;27;45153;-51
2024/01/23 11:45:28;;;;;;;10.35;1.63;;;15.30;60.70;;;;;;5151880;27;45153;-51
2024/01/23 11:47:58;;;;;;;9.38;1.77;;;15.30;60.70;;;;;;5153437;27;44736;-51
2024/01/23 11:50:26;;;;;;;4.22;1.13;;;15.30;60.60;;;;;;5152697;27;46061;-51
2024/01/23 11:52:54;;;;;;;7.22;1.80;;;15.30;60.80;;;;;;5151001;27;45216;-51
2024/01/23 11:55:22;;;;;;;6.22;1.42;;;15.30;60.80;;;;;;5150152;27;45201;-51
2024/01/23 11:57:49;;;;;;;8.13;1.77;;;15.30;61.00;;;;;;5153998;27;45113;-51
2024/01/23 12:00:18;;;;;;;5.28;1.58;;;15.20;60.90;;;;;;5153027;27;47308;-51
2024/01/23 12:02:45;;;;;;;5.45;1.67;;;15.20;60.80;;;;;;5152023;27;44653;-50
2024/01/23 12:05:14;;;;;;;8.02;1.95;;;15.20;61.20;;;;;;5152858;27;45158;-51
2024/01/23 12:07:42;;;;;;;9.35;2.10;;;15.20;61.50;;;;;;5154782;27;45359;-51
2024/01/23 12:10:10;;;;;;;7.90;2.15;;;15.20;61.40;;;;;;5152268;27;46992;-51
2024/01/23 12:12:38;;;;;;;7.63;1.70;;;15.20;61.30;;;;;;5149589;27;45107;-51
2024/01/23 12:15:05;;;;;;;6.30;1.83;;;15.30;61.70;;;;;;5151867;27;45101;-51
2024/01/23 12:17:33;;;;;;;5.53;1.88;;;15.20;61.40;;;;;;5151124;27;44837;-50
2024/01/23 12:20:04;;;;;;;8.23;1.75;;;15.20;61.50;;;;;;5153219;27;45523;-51
2024/01/23 12:22:32;;;;;;;6.78;2.13;;;15.30;61.70;;;;;;5153721;27;45345;-51
2024/01/23 12:25:00;;;;;;;7.10;1.70;;;15.30;61.60;;;;;;5152421;27;45215;-51
2024/01/23 12:27:26;;;;;;;8.13;2.10;;;15.30;61.50;;;;;;5150395;27;45146;-51
2024/01/23 12:29:53;;;;;;;8.60;1.98;;;15.30;61.50;;;;;;5149266;27;45338;-51
2024/01/23 12:32:20;;;;;;;6.82;1.73;;;15.40;61.60;;;;;;5153623;27;45364;-51
2024/01/23 12:34:47;;;;;;;6.68;1.90;;;15.30;61.50;;;;;;5154574;27;45212;-51
2024/01/23 12:37:15;;;;;;;7.35;1.95;;;15.40;61.50;;;;;;5150673;27;45465;-51
2024/01/23 12:39:44;;;;;;;5.68;2.28;;;15.40;61.70;;;;;;5147573;27;45214;-51
2024/01/23 12:42:11;;;;;;;5.60;1.60;;;15.30;61.50;;;;;;5152082;27;45225;-51
2024/01/23 12:44:38;;;;;;;5.38;1.75;;;15.30;61.70;;;;;;5153182;27;45192;-51
2024/01/23 12:47:12;;;;;;;8.40;2.85;;;15.30;61.80;;;;;;5148773;27;45267;-51